LRI6115 FALE-FAUT
Flight info
| Callsign | LRI6115 |
|---|---|
| Flight time | 0h 39m |
| Altitude | 28000 |
| Route | OKBOX DCT DUKMU DCT ETGON DCT UTOXO DCT TILET |
| Aircraft | B737/M-SDE2E3FGHIRWXY/LB1 |
Departure
| Time | 2026-05-07 19:21 |
|---|---|
| Airport | King Shaka International Airport (FALE) |
Arrival
| Time | 2026-05-07 20:01 |
|---|---|
| Airport | K. D. Matanzima Airport (FAUT) |
| Time | Latitude | Longitude | Altitude | Speed | Heading |
|---|---|---|---|---|---|
| 2026-05-07 19:07 | -29.62115 | 31.10617 | 279 ft | 0 kts | 131° |
| 2026-05-07 19:14 | -29.62103 | 31.10600 | 283 ft | 3 kts | 127° |
| 2026-05-07 19:15 | -29.62101 | 31.10597 | 279 ft | 4 kts | 127° |
| 2026-05-07 19:16 | -29.62088 | 31.10582 | 281 ft | 3 kts | 154° |
| 2026-05-07 19:16 | -29.62069 | 31.10577 | 279 ft | 3 kts | 196° |
| 2026-05-07 19:16 | -29.62058 | 31.10583 | 284 ft | 0 kts | 214° |
| 2026-05-07 19:18 | -29.62064 | 31.10578 | 279 ft | 6 kts | 214° |
| 2026-05-07 19:18 | -29.62111 | 31.10538 | 279 ft | 9 kts | 217° |
| 2026-05-07 19:18 | -29.62159 | 31.10496 | 279 ft | 9 kts | 219° |
| 2026-05-07 19:18 | -29.62205 | 31.10453 | 279 ft | 8 kts | 219° |
| 2026-05-07 19:19 | -29.62256 | 31.10434 | 279 ft | 8 kts | 160° |
| 2026-05-07 19:19 | -29.62296 | 31.10481 | 279 ft | 9 kts | 130° |
| 2026-05-07 19:19 | -29.62338 | 31.10547 | 279 ft | 12 kts | 124° |
| 2026-05-07 19:19 | -29.62388 | 31.10625 | 279 ft | 12 kts | 127° |
| 2026-05-07 19:20 | -29.62438 | 31.10699 | 280 ft | 12 kts | 128° |
| 2026-05-07 19:20 | -29.62485 | 31.10772 | 280 ft | 11 kts | 113° |
| 2026-05-07 19:20 | -29.62439 | 31.10832 | 281 ft | 11 kts | 36° |
| 2026-05-07 19:20 | -29.62261 | 31.10988 | 281 ft | 65 kts | 38° |
| 2026-05-07 19:21 | -29.61716 | 31.11462 | 280 ft | 128 kts | 36° |
| 2026-05-07 19:21 | -29.60886 | 31.12190 | 386 ft | 165 kts | 38° |
| 2026-05-07 19:21 | -29.59941 | 31.12985 | 957 ft | 170 kts | 36° |
| 2026-05-07 19:21 | -29.58964 | 31.13762 | 1651 ft | 171 kts | 35° |
| 2026-05-07 19:22 | -29.57977 | 31.14536 | 2368 ft | 173 kts | 33° |
| 2026-05-07 19:22 | -29.56966 | 31.15281 | 3186 ft | 173 kts | 36° |
| 2026-05-07 19:22 | -29.55948 | 31.16106 | 3762 ft | 191 kts | 35° |
| 2026-05-07 19:22 | -29.54769 | 31.17048 | 4021 ft | 220 kts | 35° |
| 2026-05-07 19:23 | -29.53444 | 31.18111 | 4300 ft | 243 kts | 35° |
| 2026-05-07 19:23 | -29.52039 | 31.19303 | 4683 ft | 265 kts | 46° |
| 2026-05-07 19:23 | -29.51213 | 31.21217 | 5296 ft | 276 kts | 83° |
| 2026-05-07 19:23 | -29.51480 | 31.23386 | 6159 ft | 279 kts | 117° |
| 2026-05-07 19:24 | -29.52732 | 31.25053 | 6990 ft | 279 kts | 149° |
| 2026-05-07 19:24 | -29.54520 | 31.25880 | 7989 ft | 279 kts | 173° |
| 2026-05-07 19:24 | -29.56419 | 31.25838 | 9036 ft | 277 kts | 197° |
| 2026-05-07 19:24 | -29.58172 | 31.24958 | 10095 ft | 274 kts | 214° |
| 2026-05-07 19:25 | -29.59810 | 31.23701 | 10644 ft | 296 kts | 218° |
| 2026-05-07 19:25 | -29.61551 | 31.22314 | 11405 ft | 304 kts | 217° |
| 2026-05-07 19:25 | -29.63303 | 31.20993 | 12674 ft | 299 kts | 216° |
| 2026-05-07 19:25 | -29.65083 | 31.19725 | 13680 ft | 304 kts | 215° |
| 2026-05-07 19:26 | -29.66928 | 31.18475 | 14490 ft | 310 kts | 214° |
| 2026-05-07 19:26 | -29.68812 | 31.17248 | 15401 ft | 312 kts | 214° |
| 2026-05-07 19:26 | -29.70724 | 31.16036 | 16304 ft | 316 kts | 214° |
| 2026-05-07 19:26 | -29.72672 | 31.14822 | 17178 ft | 320 kts | 213° |
| 2026-05-07 19:27 | -29.74649 | 31.13604 | 18054 ft | 324 kts | 213° |
| 2026-05-07 19:27 | -29.76657 | 31.12375 | 18798 ft | 330 kts | 213° |
| 2026-05-07 19:27 | -29.78729 | 31.11107 | 19030 ft | 352 kts | 213° |
| 2026-05-07 19:27 | -29.80963 | 31.09740 | 19190 ft | 375 kts | 213° |
| 2026-05-07 19:28 | -29.83318 | 31.08306 | 19583 ft | 388 kts | 213° |
| 2026-05-07 19:28 | -29.85720 | 31.06853 | 20253 ft | 392 kts | 213° |
| 2026-05-07 19:28 | -29.88142 | 31.05392 | 21010 ft | 393 kts | 213° |
| 2026-05-07 19:28 | -29.90576 | 31.03921 | 21705 ft | 397 kts | 213° |
| 2026-05-07 19:29 | -29.93038 | 31.02430 | 22378 ft | 400 kts | 213° |
| 2026-05-07 19:29 | -29.95488 | 31.00945 | 23025 ft | 404 kts | 213° |
| 2026-05-07 19:29 | -29.97983 | 30.99430 | 23639 ft | 407 kts | 213° |
| 2026-05-07 19:29 | -30.00504 | 30.97897 | 24147 ft | 411 kts | 213° |
| 2026-05-07 19:30 | -30.03049 | 30.96349 | 24661 ft | 415 kts | 213° |
| 2026-05-07 19:30 | -30.05621 | 30.94784 | 25180 ft | 418 kts | 213° |
| 2026-05-07 19:30 | -30.08207 | 30.93210 | 25699 ft | 421 kts | 213° |
| 2026-05-07 19:30 | -30.10764 | 30.91653 | 26344 ft | 420 kts | 213° |
| 2026-05-07 19:31 | -30.13337 | 30.90087 | 27085 ft | 417 kts | 213° |
| 2026-05-07 19:31 | -30.15901 | 30.88525 | 27720 ft | 417 kts | 214° |
| 2026-05-07 19:31 | -30.18465 | 30.86959 | 27896 ft | 417 kts | 214° |
| 2026-05-07 19:31 | -30.21022 | 30.85397 | 27914 ft | 415 kts | 214° |
| 2026-05-07 19:32 | -30.23578 | 30.83835 | 27931 ft | 415 kts | 214° |
| 2026-05-07 19:32 | -30.26133 | 30.82272 | 27930 ft | 416 kts | 214° |
| 2026-05-07 19:32 | -30.27865 | 30.81211 | 27935 ft | 416 kts | 213° |
| 2026-05-07 19:32 | -30.30424 | 30.79645 | 27922 ft | 416 kts | 213° |
| 2026-05-07 19:33 | -30.32953 | 30.78096 | 27931 ft | 416 kts | 213° |
| 2026-05-07 19:33 | -30.35516 | 30.76526 | 27935 ft | 416 kts | 213° |
| 2026-05-07 19:33 | -30.38039 | 30.74892 | 27926 ft | 413 kts | 218° |
| 2026-05-07 19:33 | -30.40314 | 30.72913 | 27932 ft | 407 kts | 225° |
| 2026-05-07 19:34 | -30.42485 | 30.70810 | 27928 ft | 407 kts | 225° |
| 2026-05-07 19:34 | -30.44638 | 30.68689 | 27929 ft | 406 kts | 225° |
| 2026-05-07 19:34 | -30.46787 | 30.66567 | 27935 ft | 406 kts | 225° |
| 2026-05-07 19:34 | -30.48938 | 30.64454 | 27937 ft | 405 kts | 225° |
| 2026-05-07 19:35 | -30.51094 | 30.62346 | 27933 ft | 405 kts | 225° |
| 2026-05-07 19:35 | -30.53251 | 30.60244 | 27935 ft | 405 kts | 225° |
| 2026-05-07 19:35 | -30.55410 | 30.58145 | 27937 ft | 405 kts | 225° |
| 2026-05-07 19:35 | -30.57573 | 30.56044 | 27934 ft | 405 kts | 225° |
| 2026-05-07 19:36 | -30.59734 | 30.53943 | 27934 ft | 405 kts | 225° |
| 2026-05-07 19:36 | -30.61893 | 30.51845 | 27930 ft | 405 kts | 225° |
| 2026-05-07 19:36 | -30.64051 | 30.49746 | 27933 ft | 405 kts | 225° |
| 2026-05-07 19:36 | -30.66211 | 30.47644 | 27931 ft | 404 kts | 225° |
| 2026-05-07 19:37 | -30.68365 | 30.45546 | 27937 ft | 404 kts | 224° |
| 2026-05-07 19:37 | -30.70520 | 30.43446 | 27937 ft | 404 kts | 225° |
| 2026-05-07 19:37 | -30.72674 | 30.41345 | 27940 ft | 404 kts | 225° |
| 2026-05-07 19:37 | -30.74796 | 30.39275 | 27943 ft | 404 kts | 225° |
| 2026-05-07 19:38 | -30.76950 | 30.37171 | 27938 ft | 404 kts | 225° |
| 2026-05-07 19:38 | -30.79109 | 30.35062 | 27945 ft | 404 kts | 225° |
| 2026-05-07 19:38 | -30.81258 | 30.32961 | 27939 ft | 404 kts | 225° |
| 2026-05-07 19:38 | -30.83413 | 30.30852 | 27944 ft | 404 kts | 225° |
| 2026-05-07 19:39 | -30.85561 | 30.28749 | 27946 ft | 404 kts | 225° |
| 2026-05-07 19:39 | -30.87688 | 30.26667 | 27946 ft | 404 kts | 225° |
| 2026-05-07 19:39 | -30.89835 | 30.24562 | 27947 ft | 404 kts | 225° |
| 2026-05-07 19:39 | -30.91982 | 30.22457 | 27950 ft | 404 kts | 225° |
| 2026-05-07 19:40 | -30.94133 | 30.20346 | 27941 ft | 404 kts | 225° |
| 2026-05-07 19:40 | -30.96274 | 30.18235 | 27956 ft | 403 kts | 225° |
| 2026-05-07 19:40 | -30.98392 | 30.16091 | 27951 ft | 403 kts | 226° |
| 2026-05-07 19:40 | -31.00494 | 30.13931 | 27956 ft | 403 kts | 226° |
| 2026-05-07 19:41 | -31.02598 | 30.11759 | 27940 ft | 404 kts | 226° |
| 2026-05-07 19:41 | -31.04702 | 30.09587 | 27959 ft | 404 kts | 226° |
| 2026-05-07 19:41 | -31.06809 | 30.07414 | 27945 ft | 404 kts | 226° |
| 2026-05-07 19:41 | -31.08917 | 30.05243 | 27952 ft | 404 kts | 226° |
| 2026-05-07 19:42 | -31.11024 | 30.03073 | 27957 ft | 403 kts | 226° |
| 2026-05-07 19:42 | -31.13118 | 30.00920 | 27944 ft | 399 kts | 226° |
| 2026-05-07 19:42 | -31.15195 | 29.98784 | 27950 ft | 395 kts | 226° |
| 2026-05-07 19:42 | -31.17258 | 29.96658 | 27956 ft | 397 kts | 226° |
| 2026-05-07 19:43 | -31.19307 | 29.94544 | 27967 ft | 399 kts | 226° |
| 2026-05-07 19:43 | -31.21392 | 29.92391 | 27551 ft | 400 kts | 226° |
| 2026-05-07 19:43 | -31.23469 | 29.90249 | 27044 ft | 397 kts | 226° |
| 2026-05-07 19:43 | -31.25528 | 29.88125 | 26517 ft | 392 kts | 226° |
| 2026-05-07 19:44 | -31.27563 | 29.86023 | 25969 ft | 388 kts | 226° |
| 2026-05-07 19:44 | -31.29579 | 29.83941 | 25414 ft | 384 kts | 226° |
| 2026-05-07 19:44 | -31.31570 | 29.81882 | 24900 ft | 381 kts | 226° |
| 2026-05-07 19:44 | -31.33553 | 29.79828 | 24355 ft | 379 kts | 226° |
| 2026-05-07 19:45 | -31.35516 | 29.77794 | 23805 ft | 377 kts | 226° |
| 2026-05-07 19:45 | -31.37475 | 29.75763 | 23207 ft | 375 kts | 225° |
| 2026-05-07 19:45 | -31.39422 | 29.73744 | 22614 ft | 372 kts | 225° |
| 2026-05-07 19:45 | -31.41352 | 29.71741 | 22059 ft | 368 kts | 225° |
| 2026-05-07 19:46 | -31.43231 | 29.69790 | 21523 ft | 364 kts | 225° |
| 2026-05-07 19:46 | -31.45119 | 29.67830 | 20991 ft | 360 kts | 225° |
| 2026-05-07 19:46 | -31.46982 | 29.65893 | 20476 ft | 357 kts | 225° |
| 2026-05-07 19:46 | -31.48828 | 29.63973 | 19966 ft | 353 kts | 225° |
| 2026-05-07 19:47 | -31.50661 | 29.62065 | 19447 ft | 351 kts | 225° |
| 2026-05-07 19:47 | -31.52476 | 29.60174 | 18942 ft | 348 kts | 225° |
| 2026-05-07 19:47 | -31.54287 | 29.58287 | 18434 ft | 346 kts | 225° |
| 2026-05-07 19:47 | -31.56086 | 29.56413 | 17855 ft | 344 kts | 225° |
| 2026-05-07 19:48 | -31.57867 | 29.54556 | 17299 ft | 341 kts | 225° |
| 2026-05-07 19:48 | -31.59465 | 29.52544 | 16770 ft | 334 kts | 237° |
| 2026-05-07 19:48 | -31.60614 | 29.50206 | 16223 ft | 329 kts | 248° |
| 2026-05-07 19:48 | -31.61313 | 29.47694 | 15681 ft | 326 kts | 258° |
| 2026-05-07 19:49 | -31.61770 | 29.45086 | 15155 ft | 324 kts | 260° |
| 2026-05-07 19:49 | -31.62176 | 29.42500 | 14661 ft | 321 kts | 260° |
| 2026-05-07 19:49 | -31.62574 | 29.39923 | 14161 ft | 319 kts | 260° |
| 2026-05-07 19:49 | -31.62972 | 29.37366 | 13663 ft | 317 kts | 260° |
| 2026-05-07 19:50 | -31.63372 | 29.34828 | 13101 ft | 315 kts | 259° |
| 2026-05-07 19:50 | -31.63775 | 29.32310 | 12598 ft | 312 kts | 259° |
| 2026-05-07 19:50 | -31.64174 | 29.29830 | 12119 ft | 308 kts | 259° |
| 2026-05-07 19:50 | -31.64569 | 29.27383 | 11638 ft | 303 kts | 259° |
| 2026-05-07 19:51 | -31.64959 | 29.24966 | 11177 ft | 299 kts | 258° |
| 2026-05-07 19:51 | -31.65341 | 29.22600 | 10685 ft | 297 kts | 258° |
| 2026-05-07 19:51 | -31.65723 | 29.20241 | 10314 ft | 291 kts | 258° |
| 2026-05-07 19:51 | -31.66089 | 29.17969 | 10192 ft | 276 kts | 257° |
| 2026-05-07 19:52 | -31.66437 | 29.15803 | 10083 ft | 263 kts | 258° |
| 2026-05-07 19:52 | -31.66770 | 29.13738 | 9951 ft | 252 kts | 257° |
| 2026-05-07 19:52 | -31.67095 | 29.11726 | 9608 ft | 250 kts | 258° |
| 2026-05-07 19:52 | -31.67417 | 29.09729 | 9240 ft | 248 kts | 257° |
| 2026-05-07 19:53 | -31.67735 | 29.07749 | 8895 ft | 246 kts | 257° |
| 2026-05-07 19:53 | -31.68050 | 29.05785 | 8528 ft | 244 kts | 258° |
| 2026-05-07 19:53 | -31.68199 | 29.03807 | 8168 ft | 245 kts | 272° |
| 2026-05-07 19:53 | -31.67766 | 29.01875 | 7897 ft | 247 kts | 287° |
| 2026-05-07 19:54 | -31.67073 | 29.00071 | 7626 ft | 244 kts | 288° |
| 2026-05-07 19:54 | -31.66369 | 28.98271 | 7340 ft | 241 kts | 288° |
| 2026-05-07 19:54 | -31.65677 | 28.96492 | 7071 ft | 237 kts | 288° |
| 2026-05-07 19:54 | -31.65011 | 28.94773 | 7029 ft | 226 kts | 288° |
| 2026-05-07 19:55 | -31.64371 | 28.93124 | 6991 ft | 212 kts | 287° |
| 2026-05-07 19:55 | -31.63788 | 28.91623 | 6976 ft | 198 kts | 287° |
| 2026-05-07 19:55 | -31.63215 | 28.90129 | 6528 ft | 200 kts | 286° |
| 2026-05-07 19:55 | -31.62665 | 28.88681 | 6089 ft | 194 kts | 286° |
| 2026-05-07 19:56 | -31.62122 | 28.87251 | 5612 ft | 189 kts | 286° |
| 2026-05-07 19:56 | -31.61601 | 28.85885 | 5347 ft | 171 kts | 285° |
| 2026-05-07 19:56 | -31.61135 | 28.84675 | 5188 ft | 156 kts | 285° |
| 2026-05-07 19:56 | -31.60705 | 28.83551 | 5020 ft | 144 kts | 285° |
| 2026-05-07 19:57 | -31.60308 | 28.82502 | 4837 ft | 136 kts | 284° |
| 2026-05-07 19:57 | -31.59928 | 28.81508 | 4654 ft | 130 kts | 285° |
| 2026-05-07 19:57 | -31.59555 | 28.80527 | 4628 ft | 138 kts | 285° |
| 2026-05-07 19:57 | -31.59171 | 28.79516 | 4518 ft | 133 kts | 285° |
| 2026-05-07 19:58 | -31.58803 | 28.78551 | 4125 ft | 132 kts | 286° |
| 2026-05-07 19:58 | -31.58422 | 28.77545 | 3657 ft | 135 kts | 287° |
| 2026-05-07 19:58 | -31.58036 | 28.76525 | 3195 ft | 138 kts | 290° |
| 2026-05-07 19:58 | -31.57653 | 28.75547 | 3000 ft | 123 kts | 291° |
| 2026-05-07 19:59 | -31.57256 | 28.74705 | 2935 ft | 118 kts | 296° |
| 2026-05-07 19:59 | -31.56869 | 28.73880 | 3002 ft | 117 kts | 291° |
| 2026-05-07 19:59 | -31.56560 | 28.72966 | 2989 ft | 124 kts | 288° |
| 2026-05-07 19:59 | -31.56267 | 28.72011 | 2952 ft | 122 kts | 289° |
| 2026-05-07 20:00 | -31.55931 | 28.71082 | 2851 ft | 128 kts | 294° |
| 2026-05-07 20:00 | -31.55587 | 28.70138 | 2706 ft | 120 kts | 294° |
| 2026-05-07 20:00 | -31.55263 | 28.69257 | 2548 ft | 117 kts | 295° |
| 2026-05-07 20:00 | -31.54931 | 28.68372 | 2432 ft | 115 kts | 295° |
| 2026-05-07 20:01 | -31.54654 | 28.67622 | 2408 ft | 83 kts | 293° |
| 2026-05-07 20:01 | -31.54537 | 28.67299 | 2405 ft | 20 kts | 294° |
| 2026-05-07 20:01 | -31.54519 | 28.67197 | 2401 ft | 9 kts | 243° |
| 2026-05-07 20:01 | -31.54574 | 28.67159 | 2401 ft | 9 kts | 206° |
| 2026-05-07 20:02 | -31.54632 | 28.67131 | 2403 ft | 9 kts | 199° |
| 2026-05-07 20:02 | -31.54686 | 28.67154 | 2402 ft | 9 kts | 130° |
| 2026-05-07 20:02 | -31.54709 | 28.67217 | 2403 ft | 8 kts | 119° |
| 2026-05-07 20:02 | -31.54754 | 28.67226 | 2407 ft | 5 kts | 198° |
| 2026-05-07 20:03 | -31.54784 | 28.67230 | 2405 ft | 4 kts | 149° |
| 2026-05-07 20:03 | -31.54811 | 28.67244 | 2407 ft | 4 kts | 178° |
| 2026-05-07 20:03 | -31.54837 | 28.67230 | 2406 ft | 3 kts | 228° |
| 2026-05-07 20:03 | -31.54838 | 28.67223 | 2404 ft | 1 kts | 260° |
| 2026-05-07 20:04 | -31.54836 | 28.67216 | 2404 ft | 0 kts | 291° |